Time;durP1;ratioP1;P1;durP2;ratioP2;P2;SDS_P1;SDS_P2;PMS_P1;PMS_P2;Temp;Humidity;BMP_temperature;BMP_pressure;BME280_temperature;BME280_humidity;BME280_pressure;Samples;Min_cycle;Max_cycle;Signal;HPM_P1;HPM_P2
2023/06/27 00:01:41;;;;;;;5.10;1.70;;;14.90;1.00;;;;;;5015243;28;20200;-77
2023/06/27 00:04:07;;;;;;;5.33;1.37;;;14.90;1.00;;;;;;5014287;28;20180;-77
2023/06/27 00:06:37;;;;;;;4.20;1.40;;;14.80;1.00;;;;;;5013936;28;20238;-77
2023/06/27 00:09:05;;;;;;;3.50;1.60;;;14.80;1.00;;;;;;5013977;28;20624;-77
2023/06/27 00:11:31;;;;;;;2.07;1.57;;;14.70;1.00;;;;;;5013871;28;20201;-77
2023/06/27 00:13:58;;;;;;;4.60;1.67;;;14.50;1.00;;;;;;5015233;28;20523;-77
2023/06/27 00:16:24;;;;;;;2.63;1.27;;;14.60;1.00;;;;;;5013767;28;20235;-77
2023/06/27 00:18:50;;;;;;;2.80;1.50;;;14.60;1.00;;;;;;5013829;28;20176;-77
2023/06/27 00:21:17;;;;;;;2.03;1.10;;;14.60;1.00;;;;;;5015323;28;20215;-77
2023/06/27 00:23:43;;;;;;;2.97;1.27;;;14.50;1.00;;;;;;5015134;28;20247;-77
2023/06/27 00:26:11;;;;;;;5.10;1.67;;;14.50;1.00;;;;;;5013695;28;20208;-77
2023/06/27 00:28:37;;;;;;;2.43;1.50;;;14.50;1.00;;;;;;5013716;28;20597;-77
2023/06/27 00:31:03;;;;;;;4.80;1.40;;;14.50;1.00;;;;;;5014401;28;20231;-77
2023/06/27 00:33:28;;;;;;;3.53;1.40;;;14.40;1.00;;;;;;5013969;28;20636;-77
2023/06/27 00:35:54;;;;;;;4.40;1.40;;;14.40;1.00;;;;;;5013406;28;20602;-77
2023/06/27 00:38:19;;;;;;;3.40;1.30;;;14.40;1.00;;;;;;5014707;28;20235;-77
2023/06/27 00:40:45;;;;;;;3.87;1.80;;;14.40;1.00;;;;;;5014974;28;20284;-77
2023/06/27 00:43:11;;;;;;;2.50;1.67;;;14.40;1.00;;;;;;5013476;28;20539;-77
2023/06/27 00:45:36;;;;;;;2.63;1.53;;;14.30;1.00;;;;;;5013380;28;20655;-77
2023/06/27 00:48:02;;;;;;;3.50;1.30;;;14.30;1.00;;;;;;5013176;28;20184;-77
2023/06/27 00:50:30;;;;;;;2.87;1.60;;;14.30;1.00;;;;;;5014469;28;20169;-77
2023/06/27 00:52:57;;;;;;;5.80;1.60;;;14.30;1.00;;;;;;5014580;28;20165;-77
2023/06/27 00:55:23;;;;;;;3.20;1.23;;;14.20;1.00;;;;;;5014600;28;20690;-77
2023/06/27 00:57:49;;;;;;;3.30;1.43;;;14.20;1.00;;;;;;5014724;28;20232;-77
2023/06/27 01:00:18;;;;;;;4.23;1.60;;;14.10;1.00;;;;;;5014663;28;20176;-77
2023/06/27 01:02:46;;;;;;;5.37;1.63;;;14.10;1.00;;;;;;5014406;28;20231;-77
2023/06/27 01:05:14;;;;;;;3.63;1.50;;;14.10;1.00;;;;;;5014192;28;20715;-77
2023/06/27 01:07:50;;;;;;;3.33;1.40;;;14.00;10.30;;;;;;5012978;28;20228;-77
2023/06/27 01:10:35;;;;;;;3.70;1.30;;;14.00;7.30;;;;;;5014428;28;20280;-77
2023/06/27 01:13:28;;;;;;;2.97;1.63;;;14.00;9.60;;;;;;5013375;28;20584;-77
2023/06/27 01:15:55;;;;;;;4.17;1.27;;;14.00;11.40;;;;;;5014227;28;20149;-77
2023/06/27 01:18:21;;;;;;;4.20;1.53;;;13.90;15.70;;;;;;5014197;28;20181;-77
2023/06/27 01:20:49;;;;;;;4.07;1.40;;;13.80;25.90;;;;;;5013875;28;20284;-77
2023/06/27 01:23:25;;;;;;;4.37;1.60;;;13.90;37.40;;;;;;5014050;28;20169;-77
2023/06/27 01:26:01;;;;;;;3.60;1.63;;;13.80;10.80;;;;;;5012853;28;20165;-77
2023/06/27 01:28:27;;;;;;;3.17;1.60;;;13.80;42.10;;;;;;5017704;28;20191;-76
2023/06/27 01:30:52;;;;;;;3.20;1.30;;;13.80;55.80;;;;;;5037660;28;20201;-77
2023/06/27 01:33:21;;;;;;;2.50;1.40;;;13.70;54.30;;;;;;5037461;28;20177;-77
2023/06/27 01:36:04;;;;;;;4.10;1.60;;;13.60;90.40;;;;;;5020690;28;20173;-76
2023/06/27 01:38:38;;;;;;;4.87;1.70;;;13.60;99.90;;;;;;5014121;28;20256;-76
2023/06/27 01:41:09;;;;;;;3.90;1.40;;;13.60;89.50;;;;;;5013971;28;20208;-77
2023/06/27 01:43:35;;;;;;;4.43;1.87;;;13.60;99.90;;;;;;5013882;28;20169;-77
2023/06/27 01:46:02;;;;;;;2.87;1.60;;;13.60;99.90;;;;;;5012334;28;20177;-77
2023/06/27 01:48:28;;;;;;;1.97;1.67;;;13.60;99.90;;;;;;5012324;28;20180;-77
2023/06/27 01:50:54;;;;;;;2.83;1.50;;;13.60;99.90;;;;;;5013373;28;20200;-77
2023/06/27 01:53:20;;;;;;;5.83;1.87;;;13.60;99.90;;;;;;5012023;28;20595;-77
2023/06/27 01:55:45;;;;;;;4.00;1.80;;;13.50;99.90;;;;;;5013253;28;20223;-77
2023/06/27 01:58:12;;;;;;;3.07;1.57;;;13.50;99.90;;;;;;5013057;28;20201;-77
2023/06/27 02:00:37;;;;;;;4.07;1.63;;;13.50;99.90;;;;;;5011891;28;20197;-77
2023/06/27 02:03:03;;;;;;;2.43;1.50;;;13.40;99.90;;;;;;5011931;28;20652;-77
2023/06/27 02:05:29;;;;;;;3.83;1.70;;;13.40;99.90;;;;;;5013131;28;20590;-77
2023/06/27 02:07:54;;;;;;;3.00;1.70;;;13.40;99.90;;;;;;5011770;28;20650;-77
2023/06/27 02:10:20;;;;;;;1.90;1.50;;;13.50;99.90;;;;;;5012815;28;20185;-77
2023/06/27 02:12:46;;;;;;;8.63;1.90;;;13.50;99.90;;;;;;5013061;28;20180;-77
2023/06/27 02:15:12;;;;;;;3.43;1.50;;;13.40;99.90;;;;;;5012987;28;20180;-77
2023/06/27 02:17:37;;;;;;;4.93;1.80;;;13.40;99.90;;;;;;5013030;28;20622;-77
2023/06/27 02:20:04;;;;;;;3.23;1.77;;;13.40;99.90;;;;;;5011563;28;20224;-77
2023/06/27 02:22:30;;;;;;;2.43;1.60;;;13.50;99.90;;;;;;5012814;28;20247;-77
2023/06/27 02:24:55;;;;;;;4.50;1.50;;;13.40;99.90;;;;;;5012061;28;20169;-77
2023/06/27 02:27:21;;;;;;;2.93;1.63;;;13.40;99.90;;;;;;5012870;28;20176;-76
2023/06/27 02:29:46;;;;;;;3.33;2.07;;;13.40;99.90;;;;;;5011783;28;20172;-77
2023/06/27 02:32:12;;;;;;;1.93;1.33;;;13.40;99.90;;;;;;5011328;28;20201;-77
2023/06/27 02:34:38;;;;;;;2.77;1.83;;;13.50;99.90;;;;;;5011301;28;20185;-77
2023/06/27 02:37:03;;;;;;;3.37;1.80;;;13.50;99.90;;;;;;5012612;28;20192;-77
2023/06/27 02:39:29;;;;;;;4.87;1.60;;;13.50;99.90;;;;;;5012641;28;20198;-77
2023/06/27 02:41:54;;;;;;;4.60;1.70;;;13.50;99.90;;;;;;5012547;28;20192;-77
2023/06/27 02:44:20;;;;;;;4.20;1.67;;;13.60;99.90;;;;;;5012769;28;20183;-77
2023/06/27 02:46:45;;;;;;;5.53;1.77;;;13.50;99.90;;;;;;5012515;28;20184;-77
2023/06/27 02:49:11;;;;;;;3.10;1.60;;;13.50;99.90;;;;;;5011321;28;20203;-77
2023/06/27 02:51:36;;;;;;;4.10;1.60;;;13.50;99.90;;;;;;5013402;28;20267;-77
2023/06/27 02:54:02;;;;;;;4.13;1.43;;;13.50;99.90;;;;;;5012625;28;20268;-77
2023/06/27 02:56:27;;;;;;;4.13;1.63;;;13.50;99.90;;;;;;5013213;28;20691;-77
2023/06/27 02:58:53;;;;;;;5.27;1.83;;;13.50;99.90;;;;;;5012687;28;20177;-77
2023/06/27 03:01:18;;;;;;;4.07;1.70;;;13.40;99.90;;;;;;5012322;28;20290;-77
2023/06/27 03:03:45;;;;;;;3.60;1.70;;;13.50;99.90;;;;;;5012305;28;20682;-77
2023/06/27 03:06:11;;;;;;;3.97;1.70;;;13.40;99.90;;;;;;5011797;28;20211;-77
2023/06/27 03:08:37;;;;;;;3.63;1.70;;;13.30;99.90;;;;;;5010989;28;20590;-77
2023/06/27 03:11:03;;;;;;;2.77;1.73;;;13.30;99.90;;;;;;5011134;28;20246;-77
2023/06/27 03:13:29;;;;;;;2.60;1.60;;;13.20;99.90;;;;;;5010823;28;20176;-77
2023/06/27 03:15:54;;;;;;;4.23;1.73;;;13.20;99.90;;;;;;5012186;28;20173;-77
2023/06/27 03:18:20;;;;;;;3.53;2.70;;;13.30;99.90;;;;;;5012108;28;20303;-77
2023/06/27 03:20:46;;;;;;;1.63;1.40;;;13.30;99.90;;;;;;5012125;28;20619;-77
2023/06/27 03:23:11;;;;;;;2.00;1.50;;;13.30;99.90;;;;;;5012299;28;20244;-77
2023/06/27 03:25:37;;;;;;;2.37;1.80;;;13.40;99.90;;;;;;5012446;28;20264;-77
2023/06/27 03:28:02;;;;;;;2.47;1.83;;;13.30;99.90;;;;;;5012219;28;20536;-77
2023/06/27 03:30:28;;;;;;;5.37;2.00;;;13.30;99.90;;;;;;5012081;28;20176;-77
2023/06/27 03:32:54;;;;;;;4.50;1.67;;;13.30;99.90;;;;;;5034451;22;20258;-90
2023/06/27 03:35:20;;;;;;;4.73;1.60;;;13.80;99.90;;;;;;5054844;28;20167;-90
2023/06/27 03:37:45;;;;;;;2.03;1.43;;;13.40;99.90;;;;;;5055959;28;20211;-90
2023/06/27 03:40:11;;;;;;;3.90;1.83;;;13.90;99.90;;;;;;5057112;28;20188;-90
2023/06/27 03:42:36;;;;;;;4.13;1.33;;;13.40;99.90;;;;;;5055892;28;20176;-90
2023/06/27 03:45:03;;;;;;;2.50;1.80;;;13.40;99.90;;;;;;5055903;28;20197;-90
2023/06/27 03:47:30;;;;;;;2.23;1.73;;;12.80;99.90;;;;;;5055754;28;20229;-90
2023/06/27 03:49:55;;;;;;;4.80;1.83;;;13.90;99.90;;;;;;5055578;28;20199;-90
2023/06/27 03:52:21;;;;;;;3.47;1.87;;;13.40;99.90;;;;;;5057067;28;20229;-90
2023/06/27 03:54:47;;;;;;;4.60;1.90;;;13.50;99.90;;;;;;5055565;28;20251;-90
2023/06/27 03:57:12;;;;;;;3.20;1.67;;;13.40;99.90;;;;;;5056656;28;20195;-90
2023/06/27 03:59:38;;;;;;;4.03;1.60;;;13.50;99.90;;;;;;5056201;28;20242;-90
2023/06/27 04:02:03;;;;;;;5.50;1.73;;;13.50;99.90;;;;;;5056563;28;20254;-90
2023/06/27 04:04:29;;;;;;;4.47;1.63;;;13.50;99.90;;;;;;5056637;28;20164;-90
2023/06/27 04:06:54;;;;;;;4.77;2.10;;;13.50;99.90;;;;;;5055288;28;20218;-90
2023/06/27 04:09:20;;;;;;;4.17;1.63;;;13.50;99.90;;;;;;5055273;28;20203;-90
2023/06/27 04:11:45;;;;;;;3.80;2.07;;;13.50;99.90;;;;;;5055233;28;20180;-90
2023/06/27 04:14:11;;;;;;;3.43;2.00;;;13.50;99.90;;;;;;5056618;28;20264;-90
2023/06/27 04:16:36;;;;;;;6.03;2.10;;;13.70;99.90;;;;;;5055017;28;20246;-90
2023/06/27 04:19:02;;;;;;;5.37;2.07;;;13.50;99.90;;;;;;5054751;28;20192;-90
2023/06/27 04:21:28;;;;;;;5.13;2.03;;;13.60;99.90;;;;;;5055323;28;20654;-90
2023/06/27 04:23:54;;;;;;;3.07;1.70;;;13.70;99.90;;;;;;5054784;28;20179;-90
2023/06/27 04:26:20;;;;;;;4.90;1.73;;;13.70;99.90;;;;;;5054691;28;20174;-90
2023/06/27 04:28:47;;;;;;;3.60;1.60;;;14.40;99.90;;;;;;5054692;28;20560;-90
2023/06/27 04:31:13;;;;;;;4.03;1.77;;;14.70;99.90;;;;;;5054559;28;20179;-90
2023/06/27 04:33:39;;;;;;;6.73;2.00;;;14.00;99.90;;;;;;5055226;28;20197;-90
2023/06/27 04:36:06;;;;;;;2.37;1.60;;;14.00;99.90;;;;;;5054830;28;20172;-90
2023/06/27 04:38:39;;;;;;;3.83;1.80;;;14.00;99.90;;;;;;5054909;28;20223;-90
2023/06/27 04:41:05;;;;;;;3.20;1.57;;;14.00;99.90;;;;;;5055594;28;20171;-90
2023/06/27 04:43:32;;;;;;;4.33;2.00;;;14.30;99.90;;;;;;5054614;28;20730;-90
2023/06/27 04:45:58;;;;;;;3.60;1.83;;;14.40;99.90;;;;;;5055051;28;20171;-90
2023/06/27 04:48:24;;;;;;;3.17;1.97;;;14.50;99.90;;;;;;5054128;28;20230;-90
2023/06/27 04:50:50;;;;;;;6.07;2.40;;;14.30;99.90;;;;;;5054496;28;20534;-90
2023/06/27 04:53:19;;;;;;;4.00;2.30;;;15.40;99.90;;;;;;5054889;28;20277;-90
2023/06/27 04:55:45;;;;;;;6.97;2.60;;;15.40;99.90;;;;;;5054869;28;20202;-91
2023/06/27 04:58:11;;;;;;;6.67;2.33;;;14.50;99.90;;;;;;5055007;28;20249;-90
2023/06/27 05:00:36;;;;;;;4.33;2.40;;;14.60;99.90;;;;;;5055043;28;20175;-91
2023/06/27 05:03:02;;;;;;;5.87;2.40;;;15.30;99.90;;;;;;5055624;28;20218;-90
2023/06/27 05:05:32;;;;;;;7.57;2.90;;;14.70;99.90;;;;;;5055091;28;20182;-90
2023/06/27 05:08:03;;;;;;;7.23;2.80;;;14.80;99.90;;;;;;5054966;28;20266;-90
2023/06/27 05:10:32;;;;;;;7.07;2.57;;;15.20;99.90;;;;;;5054766;28;20176;-90
2023/06/27 05:12:58;;;;;;;9.67;2.70;;;15.00;99.90;;;;;;5055746;28;20176;-90
2023/06/27 05:15:27;;;;;;;9.33;2.93;;;15.00;99.90;;;;;;5055476;28;20183;-90
2023/06/27 05:18:07;;;;;;;8.33;3.27;;;15.20;99.90;;;;;;5054576;28;20227;-90
2023/06/27 05:20:32;;;;;;;7.60;2.73;;;15.00;99.90;;;;;;5054758;28;20202;-90
2023/06/27 05:22:58;;;;;;;9.07;2.23;;;15.10;99.90;;;;;;5054770;28;20653;-90
2023/06/27 05:25:23;;;;;;;5.00;2.20;;;15.90;99.90;;;;;;5055154;28;20187;-90
2023/06/27 05:27:49;;;;;;;9.73;3.40;;;15.30;99.90;;;;;;5055885;28;20199;-90
2023/06/27 05:30:14;;;;;;;10.93;2.83;;;15.30;99.90;;;;;;5055255;28;20203;-90
2023/06/27 05:32:40;;;;;;;8.67;2.50;;;15.30;99.90;;;;;;5053907;28;20191;-90
2023/06/27 05:35:07;;;;;;;9.13;3.00;;;15.40;99.90;;;;;;5054114;28;20175;-90
2023/06/27 05:37:33;;;;;;;8.83;3.27;;;15.40;99.90;;;;;;5054167;28;20589;-90
2023/06/27 05:39:58;;;;;;;8.97;2.80;;;15.50;99.90;;;;;;5053595;28;20203;-89
2023/06/27 05:42:24;;;;;;;8.73;3.17;;;15.50;99.90;;;;;;5053708;28;20187;-90
2023/06/27 05:44:49;;;;;;;8.20;3.37;;;15.80;99.90;;;;;;5054101;28;20172;-89
2023/06/27 05:47:16;;;;;;;5.10;2.53;;;15.60;99.90;;;;;;5053601;28;20306;-90
2023/06/27 05:49:41;;;;;;;6.87;3.23;;;15.50;92.70;;;;;;5053747;28;20635;-89
2023/06/27 05:52:07;;;;;;;6.20;2.77;;;15.90;56.60;;;;;;5053756;28;20274;-90
2023/06/27 05:54:32;;;;;;;5.87;2.63;;;16.10;68.10;;;;;;5053602;28;20179;-90
2023/06/27 05:56:58;;;;;;;9.73;2.80;;;15.60;87.20;;;;;;5053295;28;20208;-90
2023/06/27 05:59:24;;;;;;;12.13;3.07;;;15.60;93.60;;;;;;5053694;28;20198;-90
2023/06/27 06:01:49;;;;;;;11.43;3.70;;;15.90;99.90;;;;;;5053745;28;20227;-90
2023/06/27 06:04:15;;;;;;;5.43;2.90;;;15.70;99.90;;;;;;5053669;28;20258;-90
2023/06/27 06:06:40;;;;;;;10.83;4.10;;;15.70;92.30;;;;;;5055071;28;20175;-90
2023/06/27 06:09:06;;;;;;;8.27;3.37;;;15.80;88.70;;;;;;5053512;28;20200;-90
2023/06/27 06:11:34;;;;;;;10.90;3.07;;;16.00;52.60;;;;;;5054563;28;20508;-90
2023/06/27 06:14:01;;;;;;;10.80;3.53;;;15.90;55.70;;;;;;5053452;28;20176;-90
2023/06/27 06:16:27;;;;;;;6.30;3.03;;;15.90;35.00;;;;;;5054864;28;22049;-91
2023/06/27 06:18:53;;;;;;;9.40;3.30;;;15.90;27.60;;;;;;5053693;28;20283;-90
2023/06/27 06:21:19;;;;;;;9.23;3.80;;;16.00;33.10;;;;;;5054165;28;20199;-90
2023/06/27 06:23:44;;;;;;;12.47;3.53;;;16.10;31.30;;;;;;5053700;28;20676;-90
2023/06/27 06:26:13;;;;;;;11.90;3.90;;;16.70;25.10;;;;;;5053027;28;20183;-90
2023/06/27 06:28:39;;;;;;;9.83;3.60;;;16.40;7.90;;;;;;5053313;28;20200;-90
2023/06/27 06:31:05;;;;;;;14.07;3.63;;;16.40;7.90;;;;;;5053430;28;20260;-89
2023/06/27 06:33:30;;;;;;;8.10;3.30;;;16.20;3.70;;;;;;5053048;28;20191;-90
2023/06/27 06:35:57;;;;;;;9.03;3.70;;;16.30;1.00;;;;;;5053182;28;20541;-90
2023/06/27 06:38:24;;;;;;;11.20;3.47;;;16.40;1.00;;;;;;5052545;28;20684;-90
2023/06/27 06:40:50;;;;;;;12.27;4.57;;;16.90;1.00;;;;;;5053449;28;20197;-90
2023/06/27 06:43:16;;;;;;;10.50;3.60;;;16.40;1.00;;;;;;5054518;28;20669;-90
2023/06/27 06:45:41;;;;;;;9.13;3.90;;;16.70;1.00;;;;;;5053212;28;20175;-90
2023/06/27 06:48:07;;;;;;;10.77;3.50;;;16.50;1.00;;;;;;5053415;28;20204;-90
2023/06/27 06:50:32;;;;;;;11.63;4.20;;;16.60;1.00;;;;;;5053369;28;20171;-90
2023/06/27 06:52:58;;;;;;;9.53;3.70;;;16.80;1.00;;;;;;5052521;28;20167;-90
2023/06/27 06:55:24;;;;;;;13.17;3.87;;;16.70;1.00;;;;;;5053891;28;20254;-90
2023/06/27 06:57:49;;;;;;;15.00;4.50;;;16.70;1.00;;;;;;5054184;28;20191;-90
2023/06/27 07:00:17;;;;;;;10.53;4.00;;;16.80;1.00;;;;;;5053309;28;20192;-89
2023/06/27 07:02:42;;;;;;;12.07;3.63;;;16.90;1.00;;;;;;5052991;28;20182;-90
2023/06/27 07:05:08;;;;;;;13.07;4.10;;;17.70;1.00;;;;;;5052748;28;20167;-90
2023/06/27 07:07:34;;;;;;;17.17;4.23;;;17.00;1.00;;;;;;5052693;28;20206;-90
2023/06/27 07:10:00;;;;;;;13.60;4.17;;;17.30;1.00;;;;;;5053829;28;20218;-90
2023/06/27 07:12:25;;;;;;;14.03;4.97;;;16.70;1.00;;;;;;5056889;28;20195;-90
2023/06/27 07:14:51;;;;;;;14.33;3.83;;;17.50;1.00;;;;;;5058509;28;20171;-90
2023/06/27 07:17:16;;;;;;;13.50;4.47;;;17.30;1.00;;;;;;5056817;28;20199;-90
2023/06/27 07:19:42;;;;;;;11.03;4.07;;;17.40;1.00;;;;;;5057076;28;20199;-90
2023/06/27 07:22:09;;;;;;;13.97;4.67;;;17.50;1.00;;;;;;5056691;28;20198;-90
2023/06/27 07:24:34;;;;;;;13.07;4.30;;;17.60;1.00;;;;;;5057411;28;20179;-90
2023/06/27 07:27:00;;;;;;;12.57;4.20;;;17.80;1.00;;;;;;5057414;28;20241;-89
2023/06/27 07:29:25;;;;;;;14.40;6.00;;;17.70;1.00;;;;;;5057461;28;20202;-90
2023/06/27 07:31:51;;;;;;;17.03;5.43;;;17.80;1.00;;;;;;5056522;28;20237;-90
2023/06/27 07:34:17;;;;;;;12.93;4.07;;;18.70;1.00;;;;;;5056630;28;20195;-90
2023/06/27 07:36:43;;;;;;;12.47;3.60;;;17.90;1.00;;;;;;5056523;28;20329;-90
2023/06/27 07:39:08;;;;;;;15.00;4.07;;;18.20;1.00;;;;;;5056477;28;20199;-90
2023/06/27 07:41:34;;;;;;;14.77;3.40;;;18.00;1.00;;;;;;5056089;28;20201;-90
2023/06/27 07:43:59;;;;;;;11.83;3.70;;;18.20;1.00;;;;;;5056492;28;20222;-91
2023/06/27 07:46:25;;;;;;;12.53;3.80;;;18.30;1.00;;;;;;5058112;28;20176;-91
2023/06/27 07:48:51;;;;;;;13.40;3.80;;;18.60;1.00;;;;;;5057291;28;20195;-92
2023/06/27 07:51:16;;;;;;;11.23;3.93;;;18.40;1.00;;;;;;5057048;28;20168;-91
2023/06/27 07:53:42;;;;;;;14.13;4.53;;;18.50;1.00;;;;;;5057329;28;20184;-91
2023/06/27 07:56:07;;;;;;;14.93;5.10;;;18.80;1.00;;;;;;5057221;28;20180;-91
2023/06/27 07:58:33;;;;;;;12.90;4.07;;;19.50;1.00;;;;;;5059414;28;20491;-91
2023/06/27 08:00:58;;;;;;;13.53;3.80;;;18.70;1.00;;;;;;5058119;28;20183;-91
2023/06/27 08:03:25;;;;;;;13.00;4.17;;;19.20;1.00;;;;;;5061661;28;20240;-92
2023/06/27 08:05:53;;;;;;;11.97;4.00;;;18.90;1.00;;;;;;5057755;28;20172;-92
2023/06/27 08:08:19;;;;;;;11.30;3.87;;;19.10;1.00;;;;;;5056824;28;20199;-92
2023/06/27 08:10:45;;;;;;;12.13;4.03;;;19.20;1.00;;;;;;5058789;28;20172;-92
2023/06/27 08:13:10;;;;;;;14.10;4.00;;;19.20;1.00;;;;;;5056902;28;20176;-92
2023/06/27 08:15:36;;;;;;;16.17;3.83;;;19.20;1.00;;;;;;5057601;28;20672;-92
2023/06/27 08:18:02;;;;;;;14.80;3.80;;;19.50;99.90;;;;;;5057262;28;20203;-92
2023/06/27 08:20:28;;;;;;;11.03;3.30;;;19.50;99.90;;;;;;5058022;28;20167;-93
2023/06/27 08:22:54;;;;;;;11.97;3.60;;;19.60;99.90;;;;;;5058628;28;20168;-93
2023/06/27 08:25:19;;;;;;;11.90;3.50;;;19.60;1.00;;;;;;5057428;28;20174;-92
2023/06/27 08:27:45;;;;;;;14.00;4.17;;;20.10;99.90;;;;;;5056924;28;20187;-93
2023/06/27 08:30:12;;;;;;;15.87;3.90;;;20.10;99.90;;;;;;5041778;28;20304;-93
2023/06/27 08:32:37;;;;;;;12.97;3.30;;;19.80;99.90;;;;;;5058443;28;20195;-92
2023/06/27 08:35:05;;;;;;;8.27;2.90;;;20.00;99.90;;;;;;5058398;28;20182;-92
2023/06/27 08:37:31;;;;;;;9.33;3.03;;;20.10;99.90;;;;;;5056803;28;20200;-93
2023/06/27 08:39:57;;;;;;;8.23;2.80;;;20.30;99.90;;;;;;5056907;28;20253;-92
2023/06/27 08:42:23;;;;;;;16.33;3.17;;;20.20;99.90;;;;;;5056538;28;20171;-92
2023/06/27 08:44:48;;;;;;;15.47;3.27;;;20.90;99.90;;;;;;5057691;28;20191;-92
2023/06/27 08:47:18;;;;;;;12.00;2.93;;;20.30;99.90;;;;;;5058292;28;20171;-92
2023/06/27 08:49:49;;;;;;;9.03;2.83;;;20.70;99.90;;;;;;5056818;28;20669;-92
2023/06/27 08:52:19;;;;;;;9.03;2.60;;;20.30;99.90;;;;;;5057243;28;20171;-92
2023/06/27 08:54:51;;;;;;;8.53;2.63;;;20.40;99.90;;;;;;5056453;28;20175;-92
2023/06/27 08:57:18;;;;;;;8.20;2.43;;;20.50;70.80;;;;;;5056444;28;20203;-93
2023/06/27 08:59:46;;;;;;;8.10;1.83;;;21.00;1.00;;;;;;5055802;28;20206;-93
2023/06/27 09:02:12;;;;;;;6.47;2.47;;;20.80;24.90;;;;;;5054758;28;20183;-93
2023/06/27 09:04:41;;;;;;;9.93;2.47;;;20.50;96.90;;;;;;5055324;28;20255;-92
2023/06/27 09:07:06;;;;;;;12.83;3.10;;;20.40;94.00;;;;;;5055684;28;20183;-92
2023/06/27 09:09:34;;;;;;;9.33;3.50;;;21.20;99.90;;;;;;5054892;28;20691;-92
2023/06/27 09:12:01;;;;;;;9.23;2.77;;;21.00;99.90;;;;;;5055103;28;20171;-93
2023/06/27 09:14:27;;;;;;;6.23;1.80;;;21.00;99.90;;;;;;5055158;28;20187;-93
2023/06/27 09:16:53;;;;;;;6.47;2.50;;;20.90;99.90;;;;;;5054547;28;20661;-92
2023/06/27 09:19:20;;;;;;;7.83;2.27;;;20.80;99.90;;;;;;5054548;28;20199;-92
2023/06/27 09:21:47;;;;;;;8.40;2.43;;;20.80;1.00;;;;;;5056031;28;20172;-92
2023/06/27 09:24:16;;;;;;;9.40;2.83;;;20.80;1.00;;;;;;5056157;28;20222;-92
2023/06/27 09:26:42;;;;;;;10.60;2.00;;;21.10;58.20;;;;;;5054316;28;20175;-92
2023/06/27 09:29:08;;;;;;;5.23;1.97;;;20.80;99.90;;;;;;5054719;28;20282;-93
2023/06/27 09:31:34;;;;;;;9.13;2.27;;;20.80;29.80;;;;;;5054187;28;20244;-92
2023/06/27 09:34:06;;;;;;;10.90;2.13;;;20.70;1.00;;;;;;5053520;28;20241;-92
2023/06/27 09:36:40;;;;;;;6.90;2.20;;;20.70;1.00;;;;;;5053881;28;20249;-93
2023/06/27 09:39:07;;;;;;;8.37;1.90;;;20.70;1.00;;;;;;5053900;28;20564;-92
2023/06/27 09:41:47;;;;;;;5.37;1.87;;;21.00;1.00;;;;;;5054692;28;20215;-92
2023/06/27 09:44:18;;;;;;;7.27;1.87;;;21.10;1.00;;;;;;5054014;28;20171;-92
2023/06/27 09:46:46;;;;;;;5.13;1.63;;;21.20;1.00;;;;;;5055264;28;20191;-92
2023/06/27 09:49:12;;;;;;;8.00;2.17;;;21.10;1.00;;;;;;5053047;28;20746;-93
2023/06/27 09:51:38;;;;;;;8.10;1.80;;;21.40;1.00;;;;;;5053464;28;20171;-92
2023/06/27 09:54:05;;;;;;;5.73;1.57;;;21.10;1.00;;;;;;5053749;28;20209;-92
2023/06/27 09:56:33;;;;;;;5.70;1.70;;;21.20;1.00;;;;;;5053923;28;20180;-92
2023/06/27 09:59:11;;;;;;;4.37;1.90;;;21.20;1.00;;;;;;5053026;28;20364;-92
2023/06/27 10:01:38;;;;;;;4.37;1.90;;;21.30;1.00;;;;;;5054124;28;20179;-92
2023/06/27 10:04:05;;;;;;;8.83;2.13;;;21.40;1.00;;;;;;5053401;28;20175;-93
2023/06/27 10:06:31;;;;;;;6.83;1.60;;;21.50;1.00;;;;;;5053421;28;20634;-92
2023/06/27 10:08:57;;;;;;;7.43;1.97;;;21.60;1.00;;;;;;5053466;28;20203;-93
2023/06/27 10:11:24;;;;;;;7.53;1.77;;;21.90;1.00;;;;;;5054985;28;20258;-92
2023/06/27 10:13:50;;;;;;;6.37;1.67;;;21.80;1.00;;;;;;5052949;28;20210;-93
2023/06/27 10:16:17;;;;;;;7.50;1.80;;;22.00;1.00;;;;;;5052904;28;20176;-92
2023/06/27 10:18:43;;;;;;;6.57;1.50;;;22.00;1.00;;;;;;5053062;28;20200;-92
2023/06/27 10:21:09;;;;;;;9.27;1.63;;;22.10;99.90;;;;;;5053151;28;20190;-93
2023/06/27 10:23:37;;;;;;;5.00;1.73;;;21.90;99.90;;;;;;5053333;28;20263;-92
2023/06/27 10:26:03;;;;;;;7.00;2.07;;;21.90;99.90;;;;;;5052816;28;20201;-92
2023/06/27 10:28:32;;;;;;;6.43;2.73;;;21.80;99.90;;;;;;5052743;28;20200;-92
2023/06/27 10:30:58;;;;;;;8.50;3.33;;;22.00;99.90;;;;;;5052843;28;20175;-92
2023/06/27 10:33:28;;;;;;;6.07;2.40;;;21.70;99.90;;;;;;5052875;28;20195;-92
2023/06/27 10:36:20;;;;;;;9.00;2.27;;;21.60;1.00;;;;;;5053082;28;20183;-92
2023/06/27 10:38:46;;;;;;;3.93;1.83;;;21.60;99.90;;;;;;5048009;28;20588;-93
2023/06/27 10:41:23;;;;;;;5.57;1.73;;;21.50;99.90;;;;;;5052816;28;20175;-92
2023/06/27 10:43:51;;;;;;;7.17;1.30;;;21.60;1.00;;;;;;5052426;28;20168;-93
2023/06/27 10:46:17;;;;;;;5.90;1.90;;;21.50;1.00;;;;;;5053113;28;20249;-92
2023/06/27 10:48:53;;;;;;;5.27;1.90;;;21.60;1.00;;;;;;5052844;28;20291;-92
2023/06/27 10:51:23;;;;;;;5.20;1.83;;;21.60;1.00;;;;;;5053705;28;20171;-92
2023/06/27 10:54:07;;;;;;;5.73;2.00;;;21.60;1.00;;;;;;5054545;28;20168;-92
2023/06/27 10:56:51;;;;;;;6.10;1.80;;;21.40;1.00;;;;;;5057995;28;20203;-91
2023/06/27 10:59:19;;;;;;;5.07;2.03;;;21.40;1.00;;;;;;5052284;28;20196;-92
2023/06/27 11:01:58;;;;;;;6.77;2.17;;;21.50;1.00;;;;;;5053001;28;20172;-93
2023/06/27 11:04:25;;;;;;;5.40;2.47;;;21.20;1.00;;;;;;5052450;28;20171;-92
2023/06/27 11:07:01;;;;;;;7.60;2.30;;;21.00;1.00;;;;;;5053936;28;20246;-92
2023/06/27 11:09:30;;;;;;;6.67;2.03;;;21.10;1.00;;;;;;5052004;28;20669;-91
2023/06/27 11:12:14;;;;;;;10.63;2.10;;;21.30;1.00;;;;;;5051881;28;20183;-92
2023/06/27 11:14:44;;;;;;;10.57;2.40;;;21.30;1.00;;;;;;5052535;28;20616;-91
2023/06/27 11:17:11;;;;;;;6.30;1.73;;;21.40;1.00;;;;;;5052282;28;20234;-91
2023/06/27 11:19:42;;;;;;;7.67;2.23;;;21.30;1.00;;;;;;5053617;28;20245;-91
2023/06/27 11:22:08;;;;;;;4.50;1.83;;;21.40;1.00;;;;;;5053207;28;20187;-91
2023/06/27 11:24:33;;;;;;;10.13;1.70;;;21.50;99.90;;;;;;5052345;28;20172;-91
2023/06/27 11:27:03;;;;;;;7.70;1.60;;;21.50;99.90;;;;;;5052608;28;20659;-91
2023/06/27 11:29:28;;;;;;;8.63;1.73;;;21.80;99.90;;;;;;5052275;28;20199;-91
2023/06/27 11:31:55;;;;;;;7.93;2.00;;;21.70;99.90;;;;;;5052363;28;20172;-91
2023/06/27 11:34:21;;;;;;;4.30;1.90;;;22.40;99.90;;;;;;5052684;28;20245;-92
2023/06/27 11:36:47;;;;;;;6.60;2.00;;;22.20;99.90;;;;;;5052442;28;20234;-92
2023/06/27 11:39:14;;;;;;;8.47;2.17;;;21.80;99.90;;;;;;5052923;28;20532;-92
2023/06/27 11:41:45;;;;;;;11.20;2.47;;;21.80;99.90;;;;;;5052413;28;20222;-92
2023/06/27 11:44:15;;;;;;;5.23;1.87;;;21.90;99.90;;;;;;5052417;28;20210;-94
2023/06/27 11:46:50;;;;;;;9.40;2.03;;;22.00;99.90;;;;;;5053380;28;20183;-93
2023/06/27 11:49:16;;;;;;;7.80;2.80;;;22.20;1.00;;;;;;5053158;28;20199;-93
2023/06/27 11:51:42;;;;;;;7.70;2.13;;;22.40;99.90;;;;;;5053099;28;20183;-93
2023/06/27 11:54:08;;;;;;;7.60;2.30;;;22.30;99.90;;;;;;5054226;28;20183;-93
2023/06/27 11:56:38;;;;;;;7.80;2.20;;;22.30;99.90;;;;;;5054900;28;20187;-92
2023/06/27 11:59:06;;;;;;;10.40;2.30;;;22.40;99.90;;;;;;5056293;28;20251;-91
2023/06/27 12:01:33;;;;;;;5.30;2.17;;;22.40;99.90;;;;;;5057768;28;20211;-91
2023/06/27 12:04:01;;;;;;;6.30;1.77;;;22.40;99.90;;;;;;5056000;28;20172;-93
2023/06/27 12:06:28;;;;;;;4.37;1.90;;;23.30;99.90;;;;;;5057150;28;20172;-93
2023/06/27 12:08:54;;;;;;;4.60;2.20;;;22.50;88.80;;;;;;5056122;28;20198;-93
2023/06/27 12:11:34;;;;;;;4.80;1.43;;;22.80;99.90;;;;;;5056334;28;20171;-93
2023/06/27 12:14:00;;;;;;;4.10;1.40;;;22.80;99.90;;;;;;5056958;28;20167;-94
2023/06/27 12:16:29;;;;;;;4.63;1.60;;;22.80;1.00;;;;;;5055568;28;20167;-93
2023/06/27 12:19:24;;;;;;;8.10;1.63;;;22.70;1.00;;;;;;5055493;28;20565;-93
2023/06/27 12:21:53;;;;;;;6.40;1.37;;;22.70;1.00;;;;;;5034491;28;20195;-91
2023/06/27 12:24:22;;;;;;;3.00;1.20;;;22.60;1.00;;;;;;5054696;28;20182;-92
2023/06/27 12:26:47;;;;;;;3.40;1.43;;;22.80;1.00;;;;;;5056321;28;20187;-91
2023/06/27 12:29:13;;;;;;;5.67;1.67;;;22.60;1.00;;;;;;5054168;28;20203;-92
2023/06/27 12:31:40;;;;;;;4.20;1.47;;;22.60;99.90;;;;;;5055598;28;20242;-92
2023/06/27 12:34:06;;;;;;;4.27;1.10;;;22.70;99.90;;;;;;5052793;28;20286;-92
2023/06/27 12:36:33;;;;;;;5.50;1.60;;;22.90;99.90;;;;;;5054103;28;20189;-91
2023/06/27 12:38:59;;;;;;;3.60;1.60;;;22.80;1.00;;;;;;5055454;28;20241;-90
2023/06/27 12:41:26;;;;;;;4.03;1.50;;;22.80;94.10;;;;;;5055396;28;20286;-91
2023/06/27 12:43:52;;;;;;;2.40;1.07;;;22.80;99.90;;;;;;5054398;28;20207;-90
2023/06/27 12:46:18;;;;;;;2.93;1.40;;;22.90;99.90;;;;;;5054647;28;20210;-90
2023/06/27 12:48:45;;;;;;;6.10;1.77;;;23.10;1.00;;;;;;5054860;28;20640;-90